Time;durP1;ratioP1;P1;durP2;ratioP2;P2;SDS_P1;SDS_P2;PMS_P1;PMS_P2;Temp;Humidity;BMP_temperature;BMP_pressure;BME280_temperature;BME280_humidity;BME280_pressure;Samples;Min_cycle;Max_cycle;Signal;HPM_P1;HPM_P2
2022/12/18 00:00:54;;;;;;;28.10;21.63;;;9.10;73.70;;;;;;5070520;28;20024;-76
2022/12/18 00:03:20;;;;;;;27.58;20.95;;;9.10;73.90;;;;;;5071587;28;20054;-75
2022/12/18 00:05:50;;;;;;;26.52;20.63;;;9.10;74.00;;;;;;5071808;28;20032;-75
2022/12/18 00:08:16;;;;;;;27.58;20.65;;;9.10;73.70;;;;;;5071376;28;20032;-75
2022/12/18 00:10:42;;;;;;;27.17;21.15;;;9.10;74.00;;;;;;5070233;28;20392;-74
2022/12/18 00:13:08;;;;;;;26.35;20.88;;;9.20;73.80;;;;;;5070258;28;20024;-75
2022/12/18 00:15:38;;;;;;;24.63;19.90;;;9.10;73.80;;;;;;5070507;28;20441;-75
2022/12/18 00:18:05;;;;;;;25.30;19.95;;;9.10;73.70;;;;;;5071551;28;20081;-75
2022/12/18 00:20:30;;;;;;;26.50;20.25;;;9.10;73.80;;;;;;5071663;28;20060;-75
2022/12/18 00:22:56;;;;;;;25.08;19.42;;;9.20;73.90;;;;;;5070203;28;20107;-76
2022/12/18 00:25:21;;;;;;;26.23;20.23;;;9.20;73.80;;;;;;5072234;28;20028;-75
2022/12/18 00:27:47;;;;;;;24.85;19.20;;;9.20;73.80;;;;;;5071585;28;20029;-76
2022/12/18 00:30:13;;;;;;;24.73;18.73;;;9.20;73.80;;;;;;5070079;28;20111;-75
2022/12/18 00:32:38;;;;;;;25.63;19.10;;;9.20;73.90;;;;;;5071215;28;20078;-75
2022/12/18 00:35:05;;;;;;;27.80;20.70;;;9.20;73.80;;;;;;5071312;28;20020;-74
2022/12/18 00:37:33;;;;;;;24.25;18.40;;;9.20;73.80;;;;;;5071376;28;20024;-75
2022/12/18 00:39:58;;;;;;;25.23;19.13;;;9.20;73.80;;;;;;5071358;28;20060;-75
2022/12/18 00:45:08;;;;;;;23.88;18.58;;;9.20;73.80;;;;;;5071642;28;20036;-75
2022/12/18 00:47:33;;;;;;;24.02;18.67;;;9.20;73.90;;;;;;5071235;28;20025;-75
2022/12/18 00:49:59;;;;;;;25.92;19.35;;;9.20;73.80;;;;;;5070012;28;20012;-74
2022/12/18 00:52:24;;;;;;;23.23;17.95;;;9.20;73.90;;;;;;5070998;28;20012;-75
2022/12/18 00:54:50;;;;;;;22.42;17.25;;;9.20;73.70;;;;;;5070083;28;20108;-76
2022/12/18 00:57:15;;;;;;;22.33;17.50;;;9.20;73.80;;;;;;5071130;28;20028;-75
2022/12/18 00:59:41;;;;;;;22.75;17.25;;;9.20;73.70;;;;;;5069930;28;20024;-75
2022/12/18 01:02:06;;;;;;;23.40;17.73;;;9.20;73.70;;;;;;5070901;28;20036;-75
2022/12/18 01:04:33;;;;;;;21.00;16.55;;;9.20;73.70;;;;;;5069852;28;20028;-76
2022/12/18 01:06:58;;;;;;;22.70;17.58;;;9.20;73.70;;;;;;5069884;28;20480;-75
2022/12/18 01:09:24;;;;;;;21.35;16.35;;;9.20;73.60;;;;;;5071133;28;20032;-74
2022/12/18 01:11:49;;;;;;;22.98;17.08;;;9.20;73.90;;;;;;5070883;28;20020;-75
2022/12/18 01:14:15;;;;;;;22.30;17.58;;;9.20;73.60;;;;;;5072975;28;20086;-75
2022/12/18 01:16:41;;;;;;;21.08;16.05;;;9.20;73.60;;;;;;5074940;28;20495;-74
2022/12/18 01:19:06;;;;;;;23.02;17.08;;;9.20;73.70;;;;;;5073343;28;20024;-75
2022/12/18 01:21:32;;;;;;;23.52;16.95;;;9.20;73.90;;;;;;5073271;28;20034;-75
2022/12/18 01:23:57;;;;;;;23.08;17.50;;;9.20;73.60;;;;;;5073348;28;20407;-75
2022/12/18 01:26:24;;;;;;;21.45;16.67;;;9.20;73.50;;;;;;5074545;28;20024;-75
2022/12/18 01:28:49;;;;;;;21.73;16.35;;;9.20;73.60;;;;;;5073139;28;20024;-74
2022/12/18 01:31:24;;;;;;;20.65;15.77;;;9.30;73.40;;;;;;5074094;28;20495;-75
2022/12/18 01:33:51;;;;;;;21.25;16.15;;;9.30;73.20;;;;;;5074560;28;20051;-75
2022/12/18 01:36:21;;;;;;;21.35;15.55;;;9.30;73.20;;;;;;5073230;28;20025;-75
2022/12/18 01:38:47;;;;;;;19.30;15.68;;;9.30;73.10;;;;;;5073129;28;20029;-74
2022/12/18 01:41:14;;;;;;;20.95;15.68;;;9.30;73.10;;;;;;5073965;28;20048;-75
2022/12/18 01:43:41;;;;;;;20.65;15.18;;;9.30;73.10;;;;;;5073702;28;20020;-75
2022/12/18 01:46:06;;;;;;;20.95;15.70;;;9.30;73.20;;;;;;5074135;28;20063;-74
2022/12/18 01:48:32;;;;;;;21.75;16.23;;;9.40;73.20;;;;;;5074141;28;20063;-75
2022/12/18 01:50:57;;;;;;;19.63;15.27;;;9.40;73.10;;;;;;5072515;28;20545;-74
2022/12/18 01:53:23;;;;;;;21.40;15.18;;;9.40;73.10;;;;;;5072932;28;20070;-75
2022/12/18 01:55:55;;;;;;;19.08;14.45;;;9.40;73.10;;;;;;5074256;28;20021;-75
2022/12/18 01:58:30;;;;;;;19.05;14.63;;;9.30;73.10;;;;;;5074105;28;20035;-75
2022/12/18 02:00:55;;;;;;;19.88;14.75;;;9.30;73.10;;;;;;5073451;28;20031;-75
2022/12/18 02:03:21;;;;;;;19.23;14.80;;;9.30;73.20;;;;;;5073678;28;20028;-75
2022/12/18 02:05:56;;;;;;;18.50;14.63;;;9.20;73.40;;;;;;5073905;28;20032;-75
2022/12/18 02:08:39;;;;;;;19.27;14.40;;;9.20;73.50;;;;;;5073859;28;20032;-74
2022/12/18 02:11:14;;;;;;;19.27;14.43;;;9.20;73.60;;;;;;5073403;28;20108;-75
2022/12/18 02:13:50;;;;;;;18.23;13.73;;;9.20;73.60;;;;;;5073857;28;20020;-75
2022/12/18 02:16:35;;;;;;;18.17;13.98;;;9.20;73.80;;;;;;5073648;28;20104;-75
2022/12/18 02:19:15;;;;;;;19.52;14.25;;;9.20;73.70;;;;;;5073873;28;20039;-75
2022/12/18 02:21:50;;;;;;;19.20;13.70;;;9.20;73.70;;;;;;5073387;28;20074;-75
2022/12/18 02:24:40;;;;;;;17.85;13.80;;;9.10;73.70;;;;;;5072128;28;20029;-75
2022/12/18 02:27:08;;;;;;;18.42;13.60;;;9.10;73.70;;;;;;5073475;28;20103;-74
2022/12/18 02:29:50;;;;;;;17.38;13.30;;;9.10;73.70;;;;;;5073476;28;20108;-75
2022/12/18 02:32:19;;;;;;;;;;;9.10;73.70;;;;;;5073580;28;20024;-75
2022/12/18 02:34:46;;;;;;;17.15;13.15;;;9.10;73.70;;;;;;5073507;28;20276;-75
2022/12/18 02:37:16;;;;;;;20.85;13.60;;;9.10;73.90;;;;;;5072079;28;20399;-75
2022/12/18 02:39:44;;;;;;;18.95;14.07;;;9.10;73.80;;;;;;5073429;28;20506;-75
2022/12/18 02:42:11;;;;;;;17.70;12.88;;;9.10;73.70;;;;;;5071828;28;20044;-76
2022/12/18 02:44:48;;;;;;;17.25;12.93;;;9.10;73.80;;;;;;5073258;28;20032;-76
2022/12/18 02:47:16;;;;;;;18.55;13.10;;;9.10;73.80;;;;;;5071199;28;20024;-74
2022/12/18 02:50:09;;;;;;;17.10;12.55;;;9.10;73.80;;;;;;5071692;28;20399;-74
2022/12/18 02:53:17;;;;;;;17.58;13.13;;;9.10;73.80;;;;;;5073377;28;20063;-75
2022/12/18 02:55:45;;;;;;;16.60;12.57;;;9.10;73.80;;;;;;5024308;28;20040;-76
2022/12/18 02:58:47;;;;;;;17.92;13.10;;;9.10;73.90;;;;;;5073683;28;20090;-75
2022/12/18 03:01:21;;;;;;;18.50;13.45;;;9.10;73.90;;;;;;5071801;28;20028;-75
2022/12/18 03:03:59;;;;;;;16.50;12.50;;;9.10;73.90;;;;;;5071945;28;20059;-76
2022/12/18 03:06:41;;;;;;;16.85;13.05;;;9.10;73.90;;;;;;5071791;28;20024;-76
2022/12/18 03:09:11;;;;;;;17.58;13.15;;;9.10;73.90;;;;;;5073248;28;20028;-76
2022/12/18 03:14:29;;;;;;;15.23;11.82;;;9.10;74.00;;;;;;5073506;28;20036;-75
2022/12/18 03:16:59;;;;;;;17.40;12.38;;;9.10;74.00;;;;;;5065014;28;20055;-76
2022/12/18 03:19:28;;;;;;;16.58;12.02;;;9.10;74.00;;;;;;5075072;28;20420;-77
2022/12/18 03:21:56;;;;;;;16.95;12.48;;;9.10;73.90;;;;;;5091440;28;20161;-76
2022/12/18 03:24:24;;;;;;;18.55;12.18;;;9.10;73.90;;;;;;5093437;28;20073;-75
2022/12/18 03:26:54;;;;;;;16.45;12.05;;;9.10;74.00;;;;;;5091893;28;20423;-75
2022/12/18 03:29:28;;;;;;;16.27;12.30;;;9.10;74.00;;;;;;5093123;28;20024;-76
2022/12/18 03:32:00;;;;;;;15.90;11.80;;;9.10;74.00;;;;;;5091442;28;20033;-76
2022/12/18 03:34:37;;;;;;;15.57;12.02;;;9.10;73.90;;;;;;5092977;28;20047;-75
2022/12/18 03:37:03;;;;;;;15.32;11.43;;;9.10;73.90;;;;;;5092224;28;20051;-76
2022/12/18 03:39:29;;;;;;;16.30;11.93;;;9.10;73.90;;;;;;5091668;28;20112;-75
2022/12/18 03:42:22;;;;;;;16.30;11.68;;;9.10;74.00;;;;;;5091315;28;20530;-76
2022/12/18 03:45:09;;;;;;;15.60;11.48;;;9.10;73.90;;;;;;5092920;28;20066;-76
2022/12/18 03:47:59;;;;;;;14.80;11.15;;;9.10;73.90;;;;;;5091704;28;20027;-75
2022/12/18 03:50:54;;;;;;;15.13;11.43;;;9.10;73.90;;;;;;5091568;28;20491;-75
2022/12/18 03:53:32;;;;;;;15.32;11.20;;;9.10;73.90;;;;;;5092864;28;20028;-75
2022/12/18 03:56:00;;;;;;;15.38;11.48;;;9.10;73.90;;;;;;5092811;28;20034;-76
2022/12/18 03:58:27;;;;;;;14.98;11.30;;;9.10;73.80;;;;;;5092622;28;20539;-75
2022/12/18 04:00:59;;;;;;;15.10;11.32;;;9.10;73.90;;;;;;5092216;28;20039;-75
2022/12/18 04:03:26;;;;;;;15.73;11.30;;;9.10;73.90;;;;;;5091533;28;20133;-76
2022/12/18 04:05:52;;;;;;;15.15;11.20;;;9.10;73.90;;;;;;5091191;28;20111;-74
2022/12/18 04:08:19;;;;;;;15.02;11.57;;;9.10;73.80;;;;;;5092353;28;20475;-76
2022/12/18 04:10:44;;;;;;;14.27;10.20;;;9.10;73.80;;;;;;5092149;28;20043;-75
2022/12/18 04:13:10;;;;;;;14.23;10.55;;;9.10;73.80;;;;;;5092469;28;20475;-75
2022/12/18 04:15:37;;;;;;;14.73;10.75;;;9.10;73.80;;;;;;5091292;28;20023;-76
2022/12/18 04:18:03;;;;;;;14.57;11.27;;;9.10;73.90;;;;;;5090948;28;20658;-75
2022/12/18 04:20:29;;;;;;;16.83;11.18;;;9.10;73.80;;;;;;5092461;28;20020;-75
2022/12/18 04:22:54;;;;;;;15.05;11.20;;;9.10;73.80;;;;;;5091948;28;20028;-72
2022/12/18 04:25:20;;;;;;;15.80;11.07;;;9.10;73.70;;;;;;5092165;28;20063;-77
2022/12/18 04:27:45;;;;;;;15.10;10.85;;;9.10;73.80;;;;;;5090817;28;20115;-76
2022/12/18 04:30:11;;;;;;;13.98;10.32;;;9.10;73.80;;;;;;5090972;28;20028;-75
2022/12/18 04:32:37;;;;;;;15.75;10.63;;;9.10;73.70;;;;;;5090536;28;20123;-76
2022/12/18 04:35:04;;;;;;;14.65;10.93;;;9.10;73.80;;;;;;5090715;28;20455;-76
2022/12/18 04:37:30;;;;;;;14.98;10.82;;;9.10;73.80;;;;;;5090778;28;20062;-76
2022/12/18 04:39:55;;;;;;;14.25;10.27;;;9.10;73.80;;;;;;5090944;28;20055;-74
2022/12/18 04:42:21;;;;;;;14.85;10.35;;;9.10;73.70;;;;;;5091681;28;20491;-76
2022/12/18 04:44:46;;;;;;;13.30;10.13;;;9.10;73.80;;;;;;5092152;28;20040;-75
2022/12/18 04:47:12;;;;;;;13.68;10.38;;;9.10;73.70;;;;;;5092041;28;20077;-75
2022/12/18 04:49:37;;;;;;;14.52;9.95;;;9.10;73.70;;;;;;5095057;28;20387;-75
2022/12/18 04:52:03;;;;;;;14.10;9.93;;;9.10;73.80;;;;;;5095641;28;20020;-76
2022/12/18 04:54:28;;;;;;;13.88;10.10;;;9.10;73.80;;;;;;5096286;28;20035;-76
2022/12/18 04:56:54;;;;;;;13.77;10.23;;;9.10;73.80;;;;;;5096163;28;20031;-76
2022/12/18 04:59:19;;;;;;;13.25;9.95;;;9.10;73.80;;;;;;5095860;28;20028;-77
2022/12/18 05:01:45;;;;;;;13.18;10.10;;;9.10;73.80;;;;;;5095654;28;20102;-75
2022/12/18 05:04:11;;;;;;;14.93;10.75;;;9.10;73.80;;;;;;5094722;28;20047;-75
2022/12/18 05:06:36;;;;;;;13.85;9.82;;;9.10;73.80;;;;;;5094438;28;20039;-75
2022/12/18 05:09:02;;;;;;;13.95;9.90;;;9.10;73.70;;;;;;5096036;28;20448;-75
2022/12/18 05:11:28;;;;;;;13.75;10.60;;;9.10;73.70;;;;;;5095445;28;20560;-75
2022/12/18 05:13:53;;;;;;;13.07;10.00;;;9.10;73.70;;;;;;5095579;28;20036;-75
2022/12/18 05:16:19;;;;;;;13.48;9.82;;;9.10;73.60;;;;;;5094307;28;20016;-75
2022/12/18 05:18:44;;;;;;;14.40;10.00;;;9.10;73.70;;;;;;5075070;28;20418;-75
2022/12/18 05:21:10;;;;;;;13.10;9.40;;;9.10;73.70;;;;;;5073625;28;20521;-75
2022/12/18 05:23:35;;;;;;;13.70;9.77;;;9.10;73.80;;;;;;5073925;28;20028;-76
2022/12/18 05:26:03;;;;;;;13.20;9.55;;;9.10;73.70;;;;;;5075276;28;20039;-78
2022/12/18 05:28:30;;;;;;;12.85;8.90;;;9.10;73.70;;;;;;5073856;28;20021;-74
2022/12/18 05:30:59;;;;;;;13.73;9.90;;;9.10;73.70;;;;;;5073596;28;20048;-76
2022/12/18 05:33:27;;;;;;;13.88;9.43;;;9.10;73.70;;;;;;5075316;28;20035;-76
2022/12/18 05:35:58;;;;;;;13.13;9.82;;;9.10;73.70;;;;;;5075059;28;20020;-76
2022/12/18 05:38:25;;;;;;;12.57;9.27;;;9.10;73.70;;;;;;5073430;28;20033;-77
2022/12/18 05:40:52;;;;;;;13.13;9.45;;;9.10;73.70;;;;;;5074775;28;20025;-76
2022/12/18 05:43:19;;;;;;;12.82;9.23;;;9.10;73.80;;;;;;5074770;28;20033;-76
2022/12/18 05:45:44;;;;;;;12.27;8.80;;;9.10;73.70;;;;;;5073684;28;20071;-75
2022/12/18 05:48:13;;;;;;;13.02;9.20;;;9.10;73.80;;;;;;5074663;28;20068;-75
2022/12/18 05:50:41;;;;;;;12.73;9.35;;;9.10;73.80;;;;;;5074869;28;20074;-76
2022/12/18 05:53:07;;;;;;;13.10;9.38;;;9.10;73.80;;;;;;5074968;28;20020;-76
2022/12/18 05:55:38;;;;;;;13.40;9.27;;;9.10;73.70;;;;;;5074585;28;20016;-76
2022/12/18 05:58:06;;;;;;;13.05;9.43;;;9.10;73.80;;;;;;5074583;28;20035;-75
2022/12/18 06:00:32;;;;;;;12.75;8.85;;;9.10;73.80;;;;;;5074160;28;20376;-76
2022/12/18 06:02:59;;;;;;;12.60;9.05;;;9.10;73.80;;;;;;5074307;28;20086;-76
2022/12/18 06:05:25;;;;;;;12.68;9.32;;;9.10;73.80;;;;;;5073266;28;20025;-76
2022/12/18 06:07:50;;;;;;;14.02;10.05;;;9.10;73.80;;;;;;5074512;28;20499;-75
2022/12/18 06:10:16;;;;;;;13.00;9.18;;;9.10;73.70;;;;;;5074537;28;20048;-75
2022/12/18 06:12:41;;;;;;;13.05;9.52;;;9.10;73.70;;;;;;5074104;28;20021;-75
2022/12/18 06:15:07;;;;;;;14.38;8.82;;;9.10;73.70;;;;;;5072985;28;20058;-76
2022/12/18 06:17:34;;;;;;;12.48;9.38;;;9.10;73.80;;;;;;5072952;28;20060;-76
2022/12/18 06:20:00;;;;;;;12.93;9.15;;;9.10;73.70;;;;;;5073052;28;20151;-71
2022/12/18 06:22:26;;;;;;;12.23;9.10;;;9.10;73.70;;;;;;5072386;28;20036;-78
2022/12/18 06:24:52;;;;;;;13.00;9.02;;;9.10;73.80;;;;;;5077726;28;20040;-79
2022/12/18 06:27:17;;;;;;;12.60;9.20;;;9.00;73.70;;;;;;5081467;28;20032;-81
2022/12/18 06:29:43;;;;;;;12.25;8.75;;;9.10;73.80;;;;;;5080117;28;20570;-76
2022/12/18 06:32:08;;;;;;;12.73;8.73;;;9.10;73.70;;;;;;5072656;28;20025;-76
2022/12/18 06:34:36;;;;;;;12.73;9.13;;;9.10;73.80;;;;;;5072891;28;20024;-76
2022/12/18 06:37:02;;;;;;;11.98;8.80;;;9.10;73.70;;;;;;5074217;28;20038;-83
2022/12/18 06:39:27;;;;;;;13.82;9.10;;;9.10;73.70;;;;;;5074242;28;20032;-76
2022/12/18 06:41:53;;;;;;;13.00;9.25;;;9.10;73.70;;;;;;5072467;28;20373;-78
2022/12/18 06:44:19;;;;;;;12.32;8.93;;;9.10;73.70;;;;;;5063944;28;20024;-77
2022/12/18 06:46:44;;;;;;;13.48;9.18;;;9.10;73.60;;;;;;5053083;28;20049;-77
2022/12/18 06:49:10;;;;;;;12.90;9.18;;;9.00;73.60;;;;;;5052651;28;20021;-78
2022/12/18 06:51:36;;;;;;;13.65;8.65;;;9.00;73.60;;;;;;5053509;28;20056;-77
2022/12/18 06:54:02;;;;;;;13.45;8.93;;;9.10;73.60;;;;;;5053358;28;20159;-79
2022/12/18 06:56:27;;;;;;;18.38;10.10;;;9.10;73.70;;;;;;5056926;28;20025;-79
2022/12/18 06:58:53;;;;;;;19.20;10.88;;;9.10;73.10;;;;;;5053041;28;20028;-77
2022/12/18 07:01:19;;;;;;;26.63;12.95;;;9.10;72.30;;;;;;5052513;28;20025;-80
2022/12/18 07:03:44;;;;;;;20.48;10.73;;;9.10;71.80;;;;;;5052762;28;20028;-77
2022/12/18 07:06:15;;;;;;;22.40;10.68;;;9.10;72.40;;;;;;5052243;28;20098;-76
2022/12/18 07:08:40;;;;;;;19.38;10.05;;;9.10;72.80;;;;;;5053598;28;20017;-76
2022/12/18 07:11:06;;;;;;;18.95;10.35;;;9.10;72.60;;;;;;5052328;28;20024;-76
2022/12/18 07:13:31;;;;;;;19.42;11.00;;;9.10;72.60;;;;;;5052177;28;20028;-76
2022/12/18 07:16:13;;;;;;;19.48;10.48;;;9.20;72.80;;;;;;5053316;28;20025;-77
2022/12/18 07:18:39;;;;;;;20.52;11.00;;;9.20;72.80;;;;;;5053305;28;20099;-75
2022/12/18 07:21:10;;;;;;;20.15;12.00;;;9.30;72.90;;;;;;5051925;28;20120;-76
2022/12/18 07:23:36;;;;;;;17.48;10.70;;;9.30;73.10;;;;;;5053348;28;20033;-79
2022/12/18 07:26:07;;;;;;;17.75;10.55;;;9.40;73.30;;;;;;5059529;28;20067;-79
2022/12/18 07:28:33;;;;;;;19.83;10.77;;;9.40;73.30;;;;;;5053510;28;20035;-78
2022/12/18 07:31:06;;;;;;;17.33;10.00;;;9.50;73.60;;;;;;5055566;28;20082;-79
2022/12/18 07:33:33;;;;;;;17.35;10.73;;;9.50;73.80;;;;;;5054856;28;20027;-78
2022/12/18 07:36:03;;;;;;;19.00;10.70;;;9.60;73.80;;;;;;5051739;28;21627;-77
2022/12/18 07:38:29;;;;;;;17.92;10.75;;;9.60;74.00;;;;;;5072334;28;20032;-76
2022/12/18 07:40:54;;;;;;;18.75;10.88;;;9.60;74.40;;;;;;5072430;28;20614;-77
2022/12/18 07:43:20;;;;;;;16.15;10.35;;;9.70;74.80;;;;;;5072470;28;20078;-74
2022/12/18 07:45:48;;;;;;;14.48;10.13;;;9.80;75.00;;;;;;5071014;28;20080;-76
2022/12/18 07:48:14;;;;;;;17.10;10.50;;;9.80;75.30;;;;;;5072073;28;20031;-77
2022/12/18 07:50:39;;;;;;;17.13;10.18;;;9.90;76.40;;;;;;5072398;28;20020;-77
2022/12/18 07:53:05;;;;;;;16.00;10.13;;;10.00;76.90;;;;;;5073144;28;20035;-77
2022/12/18 07:55:31;;;;;;;16.80;10.60;;;10.10;77.40;;;;;;5072641;28;20393;-76
2022/12/18 07:58:00;;;;;;;16.38;10.07;;;10.30;78.10;;;;;;5072246;28;20028;-82
2022/12/18 08:00:25;;;;;;;16.92;10.55;;;10.40;78.20;;;;;;5072134;28;20115;-76
2022/12/18 08:02:51;;;;;;;15.52;9.68;;;10.60;79.00;;;;;;5072569;28;20182;-77
2022/12/18 08:05:16;;;;;;;14.13;9.88;;;10.70;79.40;;;;;;5071309;28;20119;-77
2022/12/18 08:07:42;;;;;;;17.73;10.30;;;10.70;79.70;;;;;;5071114;28;20126;-77
2022/12/18 08:10:08;;;;;;;13.55;9.55;;;10.80;80.30;;;;;;5071117;28;20027;-78
2022/12/18 08:12:33;;;;;;;16.23;10.15;;;10.90;80.70;;;;;;5072323;28;20048;-78
2022/12/18 08:14:59;;;;;;;15.35;9.63;;;11.00;81.20;;;;;;5071346;28;20025;-78
2022/12/18 08:17:24;;;;;;;14.27;9.07;;;11.00;81.40;;;;;;5073337;28;20376;-77
2022/12/18 08:19:50;;;;;;;14.25;9.32;;;11.00;81.80;;;;;;5074087;28;20032;-78
2022/12/18 08:22:15;;;;;;;14.02;9.07;;;11.10;82.00;;;;;;5071788;28;20446;-83
2022/12/18 08:24:41;;;;;;;14.90;9.15;;;11.10;82.30;;;;;;5075149;28;20029;-84
2022/12/18 08:27:06;;;;;;;15.38;9.63;;;11.20;82.30;;;;;;5073307;28;20024;-83
2022/12/18 08:29:33;;;;;;;15.13;9.07;;;11.20;81.30;;;;;;5072799;28;20024;-78
2022/12/18 08:31:59;;;;;;;19.27;9.35;;;11.20;80.50;;;;;;5070731;28;20028;-78
2022/12/18 08:34:24;;;;;;;14.38;9.30;;;11.30;80.50;;;;;;5072294;28;20025;-76
2022/12/18 08:36:50;;;;;;;20.15;9.75;;;11.30;80.20;;;;;;5070793;28;20120;-77
2022/12/18 08:39:15;;;;;;;17.10;9.88;;;11.30;79.60;;;;;;5070621;28;20024;-78
2022/12/18 08:41:41;;;;;;;16.48;9.63;;;11.30;79.40;;;;;;5072087;28;20020;-77
2022/12/18 08:46:52;;;;;;;13.95;9.20;;;11.40;80.40;;;;;;5072350;28;20043;-79
2022/12/18 08:49:17;;;;;;;16.48;9.77;;;11.50;80.70;;;;;;5071984;28;20099;-76
2022/12/18 08:51:43;;;;;;;18.65;9.13;;;11.50;81.00;;;;;;5073114;28;20532;-77
2022/12/18 08:54:13;;;;;;;16.45;9.52;;;11.50;81.10;;;;;;5070784;28;20056;-77
2022/12/18 08:56:38;;;;;;;16.70;9.25;;;11.60;81.40;;;;;;5070800;28;20025;-78
2022/12/18 08:59:05;;;;;;;17.20;9.00;;;11.60;81.70;;;;;;5070657;28;20373;-78
2022/12/18 09:01:30;;;;;;;20.65;9.90;;;11.60;81.70;;;;;;5070421;28;20373;-78
2022/12/18 09:03:56;;;;;;;19.45;9.60;;;11.60;81.90;;;;;;5070625;28;20135;-78
2022/12/18 09:06:22;;;;;;;17.75;10.23;;;11.60;81.80;;;;;;5071872;28;20031;-77
2022/12/18 09:08:48;;;;;;;19.65;10.10;;;11.60;81.80;;;;;;5070582;28;20028;-77
2022/12/18 09:11:20;;;;;;;22.23;10.32;;;11.60;81.90;;;;;;5070417;28;20024;-78
2022/12/18 09:13:45;;;;;;;15.85;9.68;;;11.70;81.90;;;;;;5070588;28;20021;-78
2022/12/18 09:16:11;;;;;;;19.35;9.73;;;11.60;82.50;;;;;;5071728;28;20033;-76
2022/12/18 09:18:37;;;;;;;21.55;10.30;;;11.60;82.10;;;;;;5071733;28;20047;-77
2022/12/18 09:21:15;;;;;;;23.63;10.00;;;11.70;82.00;;;;;;5070310;28;20028;-78
2022/12/18 09:23:41;;;;;;;19.15;10.35;;;11.70;81.80;;;;;;5071686;28;20567;-77
2022/12/18 09:26:07;;;;;;;21.77;10.65;;;11.70;81.80;;;;;;5070526;28;20031;-78
2022/12/18 09:28:32;;;;;;;20.58;10.43;;;11.70;81.60;;;;;;5070394;28;20119;-77
2022/12/18 09:30:58;;;;;;;23.55;10.40;;;11.70;81.40;;;;;;5070190;28;20033;-78
2022/12/18 09:33:23;;;;;;;22.75;10.15;;;11.70;81.20;;;;;;5070434;28;20028;-77
2022/12/18 09:35:49;;;;;;;22.35;10.02;;;11.80;80.90;;;;;;5073166;28;20503;-77
2022/12/18 09:38:17;;;;;;;21.10;10.60;;;11.70;81.00;;;;;;5073862;28;20511;-79
2022/12/18 09:40:49;;;;;;;21.85;10.52;;;11.50;80.90;;;;;;5074926;28;20016;-77
2022/12/18 09:43:27;;;;;;;24.25;10.30;;;11.40;80.90;;;;;;5075407;28;20063;-77
2022/12/18 09:46:11;;;;;;;19.48;9.32;;;11.30;80.90;;;;;;5075105;28;20541;-77
2022/12/18 09:48:48;;;;;;;20.05;9.32;;;11.20;80.90;;;;;;5073759;28;20063;-77
2022/12/18 09:51:32;;;;;;;20.83;9.68;;;11.20;80.80;;;;;;5073467;28;20017;-77
2022/12/18 09:54:02;;;;;;;22.63;9.95;;;11.20;80.60;;;;;;5075008;28;20100;-78
2022/12/18 09:56:31;;;;;;;22.25;10.02;;;11.10;80.40;;;;;;5075267;28;20025;-78
2022/12/18 09:59:02;;;;;;;21.48;10.20;;;11.10;80.20;;;;;;5073582;28;20520;-77
2022/12/18 10:01:29;;;;;;;20.02;9.18;;;11.10;80.10;;;;;;5073063;28;20043;-78
2022/12/18 10:03:55;;;;;;;16.25;9.02;;;11.10;80.00;;;;;;5074914;28;20021;-78
2022/12/18 10:06:25;;;;;;;18.63;9.57;;;11.00;79.90;;;;;;5074794;28;20028;-78
2022/12/18 10:09:00;;;;;;;18.55;9.02;;;11.00;79.90;;;;;;5073693;28;20024;-78
2022/12/18 10:11:43;;;;;;;18.35;9.43;;;11.00;79.70;;;;;;5073141;28;20070;-77
2022/12/18 10:14:29;;;;;;;16.85;9.10;;;11.00;79.60;;;;;;5073298;28;20023;-77
2022/12/18 10:17:13;;;;;;;16.58;8.85;;;10.90;79.40;;;;;;5074591;28;20035;-78
2022/12/18 10:19:49;;;;;;;17.63;9.55;;;10.90;79.30;;;;;;5074840;28;20031;-78
2022/12/18 10:22:46;;;;;;;19.83;9.50;;;10.90;79.00;;;;;;5072908;28;20609;-77
2022/12/18 10:25:26;;;;;;;16.95;8.85;;;10.90;78.80;;;;;;5074398;28;20024;-77
2022/12/18 10:27:55;;;;;;;17.40;10.25;;;10.90;78.60;;;;;;5072974;28;20403;-78
2022/12/18 10:30:23;;;;;;;16.98;8.63;;;11.00;78.50;;;;;;5074529;28;20024;-79
2022/12/18 10:32:49;;;;;;;17.08;8.85;;;11.00;78.40;;;;;;5072607;28;20027;-77
2022/12/18 10:35:21;;;;;;;16.70;8.85;;;11.00;78.30;;;;;;5072848;28;20028;-77
2022/12/18 10:38:21;;;;;;;15.90;8.65;;;11.00;78.00;;;;;;5072677;28;20128;-77
2022/12/18 10:40:57;;;;;;;16.80;8.45;;;11.10;77.70;;;;;;5073858;28;20028;-77
2022/12/18 10:43:34;;;;;;;17.15;8.52;;;11.10;77.40;;;;;;5073973;28;20557;-77
2022/12/18 10:46:09;;;;;;;15.85;8.40;;;11.10;77.20;;;;;;5073804;28;20037;-77
2022/12/18 10:48:55;;;;;;;16.38;8.90;;;11.10;77.00;;;;;;5072568;28;20488;-77
2022/12/18 10:51:26;;;;;;;16.52;9.20;;;11.10;76.80;;;;;;5073558;28;20033;-77
2022/12/18 10:53:59;;;;;;;12.93;8.20;;;11.10;76.70;;;;;;5072542;28;20038;-76
2022/12/18 10:56:27;;;;;;;15.95;8.50;;;11.10;76.70;;;;;;5072649;28;20020;-76
2022/12/18 10:59:00;;;;;;;15.85;8.55;;;11.10;76.60;;;;;;5072460;28;20031;-76
2022/12/18 11:01:26;;;;;;;14.80;8.35;;;11.10;76.50;;;;;;5072152;28;20064;-76
2022/12/18 11:03:55;;;;;;;14.48;7.70;;;11.10;76.40;;;;;;5073628;28;20036;-76
2022/12/18 11:06:24;;;;;;;13.52;7.53;;;11.10;76.10;;;;;;5072238;28;20056;-75
2022/12/18 11:09:03;;;;;;;16.15;8.15;;;11.10;75.90;;;;;;5072130;28;20435;-77
2022/12/18 11:11:30;;;;;;;18.02;8.70;;;11.10;75.80;;;;;;5073085;28;20017;-76
2022/12/18 11:14:01;;;;;;;16.63;8.57;;;11.10;75.90;;;;;;5072378;28;20024;-76
2022/12/18 11:16:30;;;;;;;24.67;8.40;;;11.00;76.50;;;;;;5073395;28;20617;-79
2022/12/18 11:19:24;;;;;;;24.48;8.15;;;11.00;75.50;;;;;;5074683;28;20090;-81
2022/12/18 11:21:50;;;;;;;25.27;8.85;;;10.90;71.20;;;;;;5074366;28;20098;-78
2022/12/18 11:24:34;;;;;;;21.80;8.73;;;10.70;74.20;;;;;;5072362;28;20028;-76
2022/12/18 11:27:15;;;;;;;19.83;8.40;;;10.70;74.10;;;;;;5073518;28;20104;-77
2022/12/18 11:29:41;;;;;;;23.60;8.63;;;10.80;73.60;;;;;;5073148;28;20497;-78
2022/12/18 11:32:31;;;;;;;20.45;8.45;;;10.80;73.20;;;;;;5072070;28;20111;-78
2022/12/18 11:35:14;;;;;;;17.42;8.32;;;10.80;73.30;;;;;;5071909;28;20027;-77
2022/12/18 11:37:43;;;;;;;18.08;8.82;;;10.90;74.00;;;;;;5072147;28;20036;-76
2022/12/18 11:40:20;;;;;;;14.82;7.50;;;10.90;74.30;;;;;;5071725;28;20032;-78
2022/12/18 11:42:54;;;;;;;19.70;8.30;;;10.90;74.60;;;;;;5072860;28;20025;-77
2022/12/18 11:45:29;;;;;;;16.52;7.43;;;10.90;75.20;;;;;;5072974;28;20028;-76
2022/12/18 11:48:00;;;;;;;16.65;7.60;;;11.00;75.70;;;;;;5072494;28;20024;-77
2022/12/18 11:50:26;;;;;;;;;;;11.00;76.10;;;;;;5073893;28;20020;-77
2022/12/18 11:52:52;;;;;;;18.15;7.50;;;11.00;76.50;;;;;;5071081;28;19950;-77
2022/12/18 11:55:43;;;;;;;16.25;7.20;;;11.10;77.60;;;;;;5071569;28;20066;-77
2022/12/18 11:58:33;;;;;;;15.82;7.18;;;11.10;77.80;;;;;;5073929;28;20025;-78
2022/12/18 12:01:10;;;;;;;15.50;6.77;;;11.30;78.90;;;;;;5071165;28;20025;-77
2022/12/18 12:04:12;;;;;;;18.38;7.82;;;11.40;78.80;;;;;;5074712;28;20020;-76
2022/12/18 12:07:11;;;;;;;14.43;7.03;;;11.50;79.50;;;;;;5071229;28;20497;-76
2022/12/18 12:09:52;;;;;;;16.73;7.50;;;11.50;79.20;;;;;;5071047;28;20567;-76
2022/12/18 12:12:27;;;;;;;13.48;6.97;;;11.60;79.70;;;;;;5071980;28;20033;-77
2022/12/18 12:15:06;;;;;;;16.10;7.55;;;11.70;79.50;;;;;;5072733;28;20017;-77
2022/12/18 12:17:56;;;;;;;13.52;7.38;;;11.80;79.80;;;;;;5072400;28;20047;-76
2022/12/18 12:20:45;;;;;;;19.42;7.50;;;11.80;80.20;;;;;;5070998;28;20039;-76
2022/12/18 12:23:49;;;;;;;15.02;7.25;;;11.90;80.80;;;;;;5071938;28;20023;-76
2022/12/18 12:26:36;;;;;;;16.15;7.40;;;12.00;80.50;;;;;;5072060;28;20033;-78
2022/12/18 12:29:31;;;;;;;15.75;6.90;;;12.00;80.40;;;;;;5071800;28;20031;-77
2022/12/18 12:32:21;;;;;;;17.00;7.10;;;12.10;80.30;;;;;;5071642;28;20032;-76
2022/12/18 12:35:06;;;;;;;19.02;7.75;;;12.20;79.90;;;;;;5071890;28;20028;-76
2022/12/18 12:37:58;;;;;;;14.65;7.32;;;12.20;79.80;;;;;;5071461;28;20035;-76
2022/12/18 12:40:26;;;;;;;15.52;6.75;;;12.20;79.40;;;;;;5071914;28;20059;-76
2022/12/18 12:43:14;;;;;;;14.73;7.10;;;12.00;79.20;;;;;;5070776;28;20757;-77
2022/12/18 12:46:03;;;;;;;15.35;7.40;;;11.90;79.20;;;;;;5071977;28;20029;-76
2022/12/18 12:48:46;;;;;;;20.67;6.93;;;11.80;79.20;;;;;;5071615;28;20420;-77
2022/12/18 12:51:24;;;;;;;17.45;6.47;;;11.70;77.20;;;;;;5071612;28;20411;-77
2022/12/18 12:53:51;;;;;;;19.45;6.43;;;11.70;76.00;;;;;;5072242;28;20017;-77
2022/12/18 12:56:19;;;;;;;15.20;6.85;;;11.70;75.40;;;;;;5070598;28;20027;-77
2022/12/18 12:59:03;;;;;;;25.60;7.15;;;11.70;75.30;;;;;;5070494;28;20032;-79
2022/12/18 13:01:50;;;;;;;24.70;6.95;;;11.60;74.50;;;;;;5072153;28;20092;-79
2022/12/18 13:04:43;;;;;;;22.27;7.07;;;11.60;74.60;;;;;;5075280;28;20063;-80